This is the latest recevied weather packets stored in our database for station/object ZL2VAX. If no packets are shown the sender has not sent any weather packets the latest 10 day(s).
| Time | Temp. | Humidity | Pressure | Rain* | Wind** | Luminosity | Snow |
|---|---|---|---|---|---|---|---|
| 1777823754 | 11.67° C | 82% | 1035 hPa | 0 mm | - | - | - |
| 1777815318 | 6.67° C | 96% | 1035.7 hPa | 0 mm | - | - | - |
| 1777814716 | 6.67° C | 96% | 1035.7 hPa | 0 mm | - | - | - |
| 1777811763 | 6.67° C | 96% | 1035.5 hPa | 0 mm | - | - | - |
| 1777800375 | 7.78° C | 91% | 1034.9 hPa | 0 mm | - | - | - |
| 1777799170 | 8.33° C | 91% | 1034.8 hPa | 0 mm | - | - | - |
| 1777797968 | 8.33° C | 91% | 1034.5 hPa | 0 mm | - | - | - |
| 1777797361 | 8.33° C | 90% | 1034.7 hPa | 0 mm | - | - | - |
| 1777788322 | 12.22° C | 81% | 1034.3 hPa | 0 mm | - | - | - |
| 1777787117 | 12.22° C | 80% | 1034.3 hPa | 0 mm | - | - | - |
| 1777786574 | 12.22° C | 80% | 1034.2 hPa | 0 mm | - | - | - |
| 1777784165 | 13.33° C | 78% | 1034.2 hPa | 0 mm | - | - | - |
| 1777776963 | 16.11° C | 69% | 1034.1 hPa | 0 mm | - | - | - |
| 1777772142 | 15.56° C | 73% | 1034.2 hPa | 0 mm | - | - | - |
| 1777771540 | 15.56° C | 72% | 1034.4 hPa | 0 mm | - | - | - |
| 1777768546 | 16.67° C | 72% | 1034.9 hPa | 0 mm | - | - | - |
| 1777767320 | 14.44° C | 79% | 1035.3 hPa | 0 mm | - | - | - |
| 1777761958 | 9.44° C | 95% | 1036.4 hPa | 0 mm | - | - | - |
| 1777760751 | 8.33° C | 96% | 1036.7 hPa | 0 mm | - | - | - |
| 1777756554 | 3.89° C | 97% | 1037.3 hPa | 0 mm | - | - | - |
| 1777744547 | 2.22° C | 97% | 1036 hPa | 0 mm | - | - | - |
| 1777740926 | 3.33° C | 97% | 1036 hPa | 0 mm | - | - | - |
| 1777740324 | 3.33° C | 97% | 1035.9 hPa | 0 mm | - | - | - |
| 1777739119 | 3.89° C | 97% | 1035.9 hPa | 0 mm | - | - | - |
| 1777737975 | 4.44° C | 97% | 1035.9 hPa | 0 mm | - | - | - |
* Rain latest hour (hover to see other rain measurements)
** Current wind speed in m/s (hover to see current wind gust speed)